createdAt,value
2022-07-30T00:00:11.493Z,67.84
2022-07-30T00:01:11.512Z,65.42
2022-07-30T00:02:11.423Z,63.65
2022-07-30T00:03:11.401Z,64.45
2022-07-30T00:04:11.377Z,65.10
2022-07-30T00:05:11.380Z,66.71
2022-07-30T00:06:11.333Z,62.68
2022-07-30T00:07:11.309Z,60.91
2022-07-30T00:08:11.287Z,61.71
2022-07-30T00:09:11.264Z,62.68
2022-07-30T00:10:11.269Z,64.94
2022-07-30T00:11:11.218Z,64.61
2022-07-30T00:12:11.194Z,64.45
2022-07-30T00:13:14.064Z,61.07
2022-07-30T00:14:11.152Z,63.00
2022-07-30T00:15:11.157Z,63.81
2022-07-30T00:16:11.173Z,62.52
2022-07-30T00:17:11.126Z,64.29
2022-07-30T00:18:11.168Z,66.87
2022-07-30T00:19:11.041Z,61.23
2022-07-30T00:20:11.358Z,62.68
2022-07-30T00:21:11.176Z,63.81
2022-07-30T00:22:11.975Z,66.06
2022-07-30T00:23:10.955Z,65.58
2022-07-30T00:24:10.935Z,62.20
2022-07-30T00:25:10.937Z,64.61
2022-07-30T00:26:10.890Z,66.23
2022-07-30T00:27:10.862Z,63.65
2022-07-30T00:28:10.863Z,61.71
2022-07-30T00:29:10.823Z,64.45
2022-07-30T00:30:10.823Z,61.71
2022-07-30T00:31:10.829Z,66.71
2022-07-30T00:32:10.758Z,67.19
2022-07-30T00:33:10.729Z,63.49
2022-07-30T00:34:10.709Z,63.81
2022-07-30T00:35:10.713Z,61.07
2022-07-30T00:36:10.668Z,63.00
2022-07-30T00:37:10.644Z,64.94
2022-07-30T00:38:10.623Z,67.03
2022-07-30T00:39:10.601Z,63.16
2022-07-30T00:40:10.602Z,64.61
2022-07-30T00:41:10.553Z,62.36
2022-07-30T00:42:10.529Z,63.49
2022-07-30T00:43:10.506Z,66.71
2022-07-30T00:44:10.487Z,61.23
2022-07-30T00:45:10.496Z,61.87
2022-07-30T00:46:10.565Z,64.45
2022-07-30T00:47:10.422Z,64.94
2022-07-30T00:48:10.396Z,63.65
2022-07-30T00:49:10.429Z,63.97
2022-07-30T00:50:10.380Z,61.55
2022-07-30T00:51:10.329Z,66.55
2022-07-30T00:52:10.305Z,65.42
2022-07-30T00:53:10.281Z,66.55
2022-07-30T00:54:10.263Z,66.39
2022-07-30T00:55:10.271Z,67.68
2022-07-30T00:56:10.219Z,63.00
2022-07-30T00:57:10.198Z,63.16
2022-07-30T00:58:10.172Z,59.46
2022-07-30T00:59:10.155Z,64.61
2022-07-30T01:00:10.157Z,64.13
2022-07-30T01:01:10.176Z,62.84
2022-07-30T01:02:10.173Z,63.49
2022-07-30T01:03:10.065Z,60.75
2022-07-30T01:04:10.123Z,58.81
2022-07-30T01:05:10.049Z,63.49
2022-07-30T01:06:14.545Z,60.42
2022-07-30T01:07:09.977Z,60.10
2022-07-30T01:08:10.039Z,65.74
2022-07-30T01:09:09.937Z,66.06
2022-07-30T01:10:09.948Z,61.23
2022-07-30T01:11:09.895Z,63.81
2022-07-30T01:12:09.869Z,65.42
2022-07-30T01:13:09.862Z,64.61
2022-07-30T01:14:09.832Z,61.71
2022-07-30T01:15:09.808Z,63.65
2022-07-30T01:16:09.856Z,62.68
2022-07-30T01:17:09.764Z,64.29
2022-07-30T01:18:09.743Z,61.55
2022-07-30T01:19:09.732Z,66.71
2022-07-30T01:20:09.729Z,63.33
2022-07-30T01:21:09.702Z,64.78
2022-07-30T01:22:09.658Z,62.68
2022-07-30T01:23:09.632Z,63.16
2022-07-30T01:24:09.614Z,65.26
2022-07-30T01:25:09.593Z,61.87
2022-07-30T01:26:09.595Z,63.16
2022-07-30T01:27:09.545Z,58.81
2022-07-30T01:28:09.518Z,60.26
2022-07-30T01:29:09.502Z,60.10
2022-07-30T01:30:09.506Z,65.42
2022-07-30T01:31:09.487Z,59.94
2022-07-30T01:32:09.430Z,63.33
2022-07-30T01:33:09.409Z,62.36
2022-07-30T01:34:09.388Z,61.39
2022-07-30T01:35:09.366Z,60.75
2022-07-30T01:36:09.373Z,62.04
2022-07-30T01:37:09.321Z,63.65
2022-07-30T01:38:09.302Z,64.13
2022-07-30T01:39:09.279Z,65.74
2022-07-30T01:40:09.289Z,64.45
2022-07-30T01:41:09.234Z,64.78
2022-07-30T01:42:09.250Z,62.68
2022-07-30T01:43:09.189Z,68.16
2022-07-30T01:44:09.167Z,64.29
2022-07-30T01:45:09.151Z,63.65
2022-07-30T01:46:09.231Z,65.42
2022-07-30T01:47:09.100Z,64.29
2022-07-30T01:48:09.076Z,67.51
2022-07-30T01:49:09.074Z,62.20
2022-07-30T01:50:11.129Z,60.75
2022-07-30T01:51:09.037Z,64.78
2022-07-30T01:52:08.989Z,61.23
2022-07-30T01:53:08.967Z,63.65
2022-07-30T01:54:08.945Z,65.42
2022-07-30T01:55:16.965Z,64.94
2022-07-30T01:56:10.719Z,59.46
2022-07-30T01:57:08.876Z,60.10
2022-07-30T01:58:08.853Z,66.39
2022-07-30T01:59:09.519Z,65.74
2022-07-30T02:00:08.811Z,65.74
2022-07-30T02:01:08.866Z,64.13
2022-07-30T02:02:08.798Z,63.33
2022-07-30T02:03:08.856Z,65.10
2022-07-30T02:04:08.726Z,64.29
2022-07-30T02:05:08.706Z,65.10
2022-07-30T02:06:08.731Z,65.58
2022-07-30T02:07:08.662Z,63.65
2022-07-30T02:08:08.645Z,64.94
2022-07-30T02:09:10.703Z,67.51
2022-07-30T02:10:08.604Z,61.39
2022-07-30T02:11:08.606Z,61.55
2022-07-30T02:12:08.558Z,62.04
2022-07-30T02:13:08.534Z,62.36
2022-07-30T02:14:08.510Z,60.91
2022-07-30T02:15:08.488Z,60.10
2022-07-30T02:16:08.544Z,63.97
2022-07-30T02:17:08.444Z,60.75
2022-07-30T02:18:09.423Z,67.68
2022-07-30T02:19:08.400Z,65.90
2022-07-30T02:20:10.096Z,63.49
2022-07-30T02:21:11.446Z,64.29
2022-07-30T02:22:08.546Z,69.61
2022-07-30T02:23:08.315Z,62.20
2022-07-30T02:24:08.294Z,66.39
2022-07-30T02:25:08.269Z,65.26
2022-07-30T02:26:08.273Z,66.87
2022-07-30T02:27:08.227Z,67.19
2022-07-30T02:28:08.201Z,66.87
2022-07-30T02:29:11.235Z,61.87
2022-07-30T02:30:09.162Z,65.26
2022-07-30T02:31:17.656Z,64.94
2022-07-30T02:32:09.113Z,63.16
2022-07-30T02:33:08.091Z,64.29
2022-07-30T02:34:08.072Z,62.20
2022-07-30T02:35:08.049Z,63.81
2022-07-30T02:36:11.341Z,65.10
2022-07-30T02:37:08.007Z,61.55
2022-07-30T02:38:07.980Z,69.61
2022-07-30T02:39:07.956Z,65.26
2022-07-30T02:40:07.932Z,61.55
2022-07-30T02:41:07.939Z,63.49
2022-07-30T02:42:07.889Z,68.48
2022-07-30T02:43:07.865Z,67.35
2022-07-30T02:44:07.845Z,63.33
2022-07-30T02:45:07.824Z,68.64
2022-07-30T02:46:07.824Z,66.23
2022-07-30T02:47:07.857Z,59.46
2022-07-30T02:48:07.759Z,61.71
2022-07-30T02:49:07.824Z,63.33
2022-07-30T02:50:07.711Z,66.87
2022-07-30T02:51:07.716Z,64.29
2022-07-30T02:52:07.667Z,65.74
2022-07-30T02:53:07.642Z,63.33
2022-07-30T02:54:07.619Z,66.71
2022-07-30T02:55:07.604Z,66.55
2022-07-30T02:56:07.607Z,60.59
2022-07-30T02:57:07.554Z,60.75
2022-07-30T02:58:07.539Z,60.26
2022-07-30T02:59:07.511Z,61.39
2022-07-30T03:00:07.487Z,68.00
2022-07-30T03:01:07.606Z,64.45
2022-07-30T03:02:07.479Z,62.04
2022-07-30T03:03:07.426Z,67.35
2022-07-30T03:04:07.399Z,61.55
2022-07-30T03:05:07.376Z,62.04
2022-07-30T03:06:07.401Z,63.16
2022-07-30T03:07:08.591Z,61.23
2022-07-30T03:08:08.341Z,63.65
2022-07-30T03:09:07.292Z,65.42
2022-07-30T03:10:07.269Z,64.61
2022-07-30T03:11:07.270Z,65.90
2022-07-30T03:12:07.224Z,68.00
2022-07-30T03:13:07.204Z,66.39
2022-07-30T03:14:07.176Z,64.29
2022-07-30T03:15:07.157Z,67.84
2022-07-30T03:16:07.188Z,67.68
2022-07-30T03:17:07.114Z,62.52
2022-07-30T03:18:07.093Z,64.61
2022-07-30T03:19:07.068Z,61.23
2022-07-30T03:20:07.047Z,66.87
2022-07-30T03:21:07.057Z,64.45
2022-07-30T03:22:07.003Z,67.84
2022-07-30T03:23:06.978Z,64.61
2022-07-30T03:24:06.959Z,63.97
2022-07-30T03:25:06.934Z,66.39
2022-07-30T03:26:06.938Z,67.19
2022-07-30T03:27:06.887Z,67.84
2022-07-30T03:28:06.872Z,67.03
2022-07-30T03:29:06.842Z,65.42
2022-07-30T03:30:06.822Z,65.26
2022-07-30T03:31:06.858Z,64.61
2022-07-30T03:32:06.819Z,68.80
2022-07-30T03:33:06.755Z,67.19
2022-07-30T03:34:06.734Z,66.71
2022-07-30T03:35:08.844Z,67.84
2022-07-30T03:36:07.711Z,64.78
2022-07-30T03:37:06.680Z,67.19
2022-07-30T03:38:06.642Z,67.51
2022-07-30T03:39:06.620Z,65.42
2022-07-30T03:40:06.597Z,63.65
2022-07-30T03:41:06.610Z,68.32
2022-07-30T03:42:06.555Z,68.16
2022-07-30T03:43:18.557Z,68.64
2022-07-30T03:44:07.513Z,65.58
2022-07-30T03:45:06.490Z,68.80
2022-07-30T03:46:06.559Z,66.39
2022-07-30T03:47:06.498Z,66.55
2022-07-30T03:48:06.421Z,68.96
2022-07-30T03:49:06.482Z,67.68
2022-07-30T03:50:06.391Z,62.36
2022-07-30T03:51:06.357Z,68.00
2022-07-30T03:52:06.344Z,67.68
2022-07-30T03:53:06.317Z,67.19
2022-07-30T03:54:08.453Z,66.06
2022-07-30T03:55:07.273Z,61.87
2022-07-30T03:56:06.281Z,67.19
2022-07-30T03:57:06.228Z,67.84
2022-07-30T03:58:06.208Z,65.58
2022-07-30T03:59:06.184Z,64.45
2022-07-30T04:00:06.165Z,68.00
2022-07-30T04:01:06.166Z,67.51
2022-07-30T04:02:07.427Z,66.71
2022-07-30T04:03:06.095Z,66.55
2022-07-30T04:04:06.140Z,66.06
2022-07-30T04:05:06.048Z,67.35
2022-07-30T04:06:06.057Z,68.32
2022-07-30T04:07:06.004Z,64.13
2022-07-30T04:08:05.984Z,65.42
2022-07-30T04:09:05.959Z,67.51
2022-07-30T04:10:05.938Z,67.84
2022-07-30T04:11:05.949Z,67.19
2022-07-30T04:12:05.896Z,68.64
2022-07-30T04:13:09.441Z,65.90
2022-07-30T04:14:06.876Z,67.35
2022-07-30T04:16:35.555Z,68.00
2022-07-30T04:16:38.956Z,63.33
2022-07-30T04:17:07.826Z,67.35
2022-07-30T04:18:05.767Z,67.03
2022-07-30T04:19:05.767Z,66.23
2022-07-30T04:20:05.715Z,67.35
2022-07-30T04:21:05.719Z,69.61
2022-07-30T04:22:05.669Z,67.84
2022-07-30T04:23:05.647Z,64.29
2022-07-30T04:24:05.866Z,68.80
2022-07-30T04:25:05.601Z,67.51
2022-07-30T04:26:05.606Z,65.10
2022-07-30T04:27:05.562Z,69.45
2022-07-30T04:28:05.538Z,66.06
2022-07-30T04:29:05.521Z,68.80
2022-07-30T04:30:05.489Z,61.07
2022-07-30T04:31:05.552Z,67.51
2022-07-30T04:32:05.448Z,67.03
2022-07-30T04:33:05.430Z,64.29
2022-07-30T04:34:05.405Z,67.68
2022-07-30T04:35:05.380Z,66.39
2022-07-30T04:36:05.388Z,68.16
2022-07-30T04:37:05.338Z,68.80
2022-07-30T04:38:05.316Z,68.16
2022-07-30T04:39:05.292Z,69.77
2022-07-30T04:40:05.272Z,69.13
2022-07-30T04:41:05.273Z,66.06
2022-07-30T04:42:05.226Z,68.96
2022-07-30T04:43:05.206Z,69.13
2022-07-30T04:44:05.186Z,70.25
2022-07-30T04:45:05.161Z,69.77
2022-07-30T04:46:05.209Z,67.19
2022-07-30T04:47:05.118Z,69.93
2022-07-30T04:48:05.095Z,67.19
2022-07-30T04:49:05.153Z,64.78
2022-07-30T04:50:05.049Z,67.03
2022-07-30T04:51:05.058Z,65.42
2022-07-30T04:52:05.011Z,68.64
2022-07-30T04:53:04.986Z,69.61
2022-07-30T04:54:04.967Z,65.90
2022-07-30T04:55:04.941Z,69.93
2022-07-30T04:56:04.945Z,69.61
2022-07-30T04:57:05.129Z,70.09
2022-07-30T04:58:04.892Z,68.16
2022-07-30T04:59:04.849Z,67.03
2022-07-30T05:00:04.829Z,67.03
2022-07-30T05:01:04.828Z,69.29
2022-07-30T05:02:04.856Z,70.58
2022-07-30T05:03:04.763Z,62.20
2022-07-30T05:04:04.736Z,66.06
2022-07-30T05:05:04.800Z,64.78
2022-07-30T05:06:04.719Z,68.96
2022-07-30T05:07:05.094Z,67.35
2022-07-30T05:08:04.644Z,67.84
2022-07-30T05:09:04.626Z,66.23
2022-07-30T05:10:04.597Z,68.96
2022-07-30T05:11:04.600Z,63.97
2022-07-30T05:12:04.551Z,66.39
2022-07-30T05:13:04.535Z,67.84
2022-07-30T05:14:04.505Z,70.90
2022-07-30T05:15:04.487Z,66.23
2022-07-30T05:16:04.572Z,66.87
2022-07-30T05:17:04.626Z,63.00
2022-07-30T05:18:04.984Z,68.32
2022-07-30T05:19:07.605Z,66.55
2022-07-30T05:20:05.383Z,69.13
2022-07-30T05:21:04.385Z,68.64
2022-07-30T05:22:06.746Z,69.13
2022-07-30T05:23:05.312Z,65.90
2022-07-30T05:24:04.293Z,65.90
2022-07-30T05:25:04.267Z,70.74
2022-07-30T05:26:04.277Z,69.29
2022-07-30T05:27:04.437Z,66.06
2022-07-30T05:28:04.203Z,69.77
2022-07-30T05:29:07.246Z,67.35
2022-07-30T05:30:04.162Z,71.54
2022-07-30T05:31:08.199Z,69.77
2022-07-30T05:32:04.115Z,66.23
2022-07-30T05:33:12.203Z,66.55
2022-07-30T05:34:05.073Z,67.35
2022-07-30T05:35:04.048Z,69.29
2022-07-30T05:36:04.055Z,67.84
2022-07-30T05:37:04.368Z,69.45
2022-07-30T05:38:03.985Z,68.80
2022-07-30T05:39:03.963Z,67.51
2022-07-30T05:40:03.973Z,65.90
2022-07-30T05:41:03.944Z,66.55
2022-07-30T05:42:04.900Z,64.29
2022-07-30T05:43:03.877Z,68.96
2022-07-30T05:44:03.869Z,67.68
2022-07-30T05:45:03.835Z,65.74
2022-07-30T05:46:03.884Z,67.51
2022-07-30T05:47:03.958Z,62.20
2022-07-30T05:48:03.762Z,66.23
2022-07-30T05:49:04.888Z,68.64
2022-07-30T05:50:05.507Z,66.06
2022-07-30T05:51:04.733Z,66.87
2022-07-30T05:52:03.679Z,67.35
2022-07-30T05:53:03.661Z,67.68
2022-07-30T05:54:03.639Z,64.61
2022-07-30T05:55:03.616Z,67.35
2022-07-30T05:56:03.619Z,65.26
2022-07-30T05:57:04.029Z,66.06
2022-07-30T05:58:04.551Z,69.13
2022-07-30T05:59:03.534Z,68.00
2022-07-30T06:00:03.511Z,67.51
2022-07-30T06:01:03.509Z,67.35
2022-07-30T06:02:03.623Z,66.06
2022-07-30T06:03:03.453Z,68.16
2022-07-30T06:04:03.450Z,69.61
2022-07-30T06:05:03.519Z,69.13
2022-07-30T06:06:03.410Z,69.13
2022-07-30T06:07:03.755Z,68.32
2022-07-30T06:08:03.337Z,67.51
2022-07-30T06:09:03.314Z,66.55
2022-07-30T06:10:03.295Z,66.87
2022-07-30T06:11:03.310Z,71.54
2022-07-30T06:12:03.247Z,65.26
2022-07-30T06:13:03.225Z,67.68
2022-07-30T06:14:03.208Z,67.51
2022-07-30T06:15:03.187Z,68.48
2022-07-30T06:16:03.212Z,63.33
2022-07-30T06:17:03.564Z,68.16
2022-07-30T06:18:03.120Z,70.58
2022-07-30T06:19:03.530Z,66.71
2022-07-30T06:20:03.065Z,64.29
2022-07-30T06:21:04.079Z,68.64
2022-07-30T06:22:06.678Z,68.00
2022-07-30T06:23:03.004Z,66.71
2022-07-30T06:24:02.981Z,68.32
2022-07-30T06:25:02.961Z,71.70
2022-07-30T06:26:02.967Z,68.16
2022-07-30T06:27:03.477Z,69.13
2022-07-30T06:28:15.645Z,68.16
2022-07-30T06:29:04.875Z,66.55
2022-07-30T06:30:02.857Z,68.00
2022-07-30T06:31:02.910Z,69.13
2022-07-30T06:32:02.812Z,66.06
2022-07-30T06:33:02.794Z,65.74
2022-07-30T06:34:02.778Z,64.13
2022-07-30T06:35:05.000Z,68.64
2022-07-30T06:36:03.748Z,64.61
2022-07-30T06:37:03.129Z,69.61
2022-07-30T06:38:07.291Z,69.61
2022-07-30T06:39:03.657Z,70.25
2022-07-30T06:40:02.639Z,68.00
2022-07-30T06:41:04.484Z,68.64
2022-07-30T06:42:02.590Z,70.42
2022-07-30T06:43:02.567Z,70.74
2022-07-30T06:44:02.554Z,69.61
2022-07-30T06:45:02.523Z,71.38
2022-07-30T06:46:02.573Z,70.74
2022-07-30T06:47:07.475Z,63.00
2022-07-30T06:48:04.449Z,68.64
2022-07-30T06:49:02.501Z,69.77
2022-07-30T06:50:02.410Z,68.64
2022-07-30T06:51:02.392Z,70.58
2022-07-30T06:52:02.397Z,67.03
2022-07-30T06:53:02.346Z,66.87
2022-07-30T06:54:02.332Z,68.80
2022-07-30T06:55:02.305Z,69.77
2022-07-30T06:56:02.287Z,68.64
2022-07-30T06:57:02.682Z,69.77
2022-07-30T06:58:02.239Z,69.61
2022-07-30T06:59:02.222Z,69.61
2022-07-30T07:00:02.202Z,70.74
2022-07-30T07:01:02.304Z,68.16
2022-07-30T07:02:02.187Z,70.42
2022-07-30T07:03:02.141Z,68.48
2022-07-30T07:04:02.154Z,70.42
2022-07-30T07:05:02.093Z,69.61
2022-07-30T07:06:02.073Z,71.22
2022-07-30T07:07:12.198Z,70.42
2022-07-30T07:08:03.033Z,70.25
2022-07-30T07:09:02.016Z,66.71
2022-07-30T07:10:01.990Z,68.48
2022-07-30T07:11:01.973Z,70.90
2022-07-30T07:12:01.984Z,67.03
2022-07-30T07:13:01.941Z,67.51
2022-07-30T07:14:04.659Z,67.35
2022-07-30T07:15:02.885Z,66.87
2022-07-30T07:16:01.870Z,68.64
2022-07-30T07:17:02.259Z,71.87
2022-07-30T07:18:02.361Z,68.00
2022-07-30T07:19:01.799Z,71.70
2022-07-30T07:20:02.782Z,69.29
2022-07-30T07:21:02.765Z,67.84
2022-07-30T07:22:01.768Z,66.87
2022-07-30T07:23:06.574Z,65.58
2022-07-30T07:24:03.699Z,68.48
2022-07-30T07:25:01.691Z,69.45
2022-07-30T07:26:01.660Z,68.00
2022-07-30T07:27:02.045Z,68.80
2022-07-30T07:28:12.039Z,68.80
2022-07-30T07:29:05.221Z,70.09
2022-07-30T07:30:05.525Z,67.84
2022-07-30T07:31:01.608Z,67.35
2022-07-30T07:32:05.707Z,68.32
2022-07-30T07:33:02.517Z,67.35
2022-07-30T07:34:01.509Z,70.09
2022-07-30T07:35:01.494Z,71.06
2022-07-30T07:36:01.463Z,68.80
2022-07-30T07:37:01.752Z,69.29
2022-07-30T07:38:01.418Z,67.51
2022-07-30T07:39:02.401Z,67.19
2022-07-30T07:40:01.386Z,69.45
2022-07-30T07:41:01.362Z,66.71
2022-07-30T07:42:01.368Z,68.16
2022-07-30T07:43:01.320Z,67.51
2022-07-30T07:44:01.301Z,66.71
2022-07-30T07:45:01.285Z,67.84
2022-07-30T07:46:01.333Z,65.26
2022-07-30T07:47:01.606Z,69.29
2022-07-30T07:48:01.229Z,67.51
2022-07-30T07:49:01.288Z,68.16
2022-07-30T07:50:01.186Z,68.48
2022-07-30T07:51:01.167Z,67.68
2022-07-30T07:52:01.174Z,70.58
2022-07-30T07:53:01.132Z,67.03
2022-07-30T07:54:20.493Z,66.39
2022-07-30T07:55:03.347Z,67.84
2022-07-30T07:56:01.074Z,66.39
2022-07-30T07:57:01.298Z,67.19
2022-07-30T07:58:01.033Z,65.10
2022-07-30T07:59:01.018Z,64.29
2022-07-30T08:00:00.996Z,69.61
2022-07-30T08:01:01.019Z,68.64
2022-07-30T08:02:01.052Z,67.68
2022-07-30T08:03:00.943Z,63.81
2022-07-30T08:04:00.926Z,64.78
2022-07-30T08:05:00.906Z,64.94
2022-07-30T08:06:05.793Z,66.23
2022-07-30T08:07:02.356Z,64.45
2022-07-30T08:08:00.855Z,62.68
2022-07-30T08:09:00.833Z,62.68
2022-07-30T08:10:00.820Z,62.84
2022-07-30T08:11:00.801Z,64.45
2022-07-30T08:12:00.812Z,66.71
2022-07-30T08:13:00.764Z,65.10
2022-07-30T08:14:00.743Z,63.49
2022-07-30T08:15:00.732Z,61.87
2022-07-30T08:16:00.707Z,63.65
2022-07-30T08:17:01.277Z,64.78
2022-07-30T08:18:00.678Z,65.26
2022-07-30T08:19:01.458Z,65.90
2022-07-30T08:20:00.639Z,66.55
2022-07-30T08:21:00.621Z,61.55
2022-07-30T08:22:00.631Z,61.71
2022-07-30T08:23:00.588Z,62.68
2022-07-30T08:24:00.571Z,63.97
2022-07-30T08:25:00.554Z,62.52
2022-07-30T08:26:00.535Z,65.26
2022-07-30T08:27:00.806Z,64.78
2022-07-30T08:28:00.501Z,63.97
2022-07-30T08:29:00.481Z,64.45
2022-07-30T08:30:00.463Z,66.23
2022-07-30T08:31:02.411Z,66.06
2022-07-30T08:32:01.720Z,64.29
2022-07-30T08:33:00.414Z,65.58
2022-07-30T08:34:00.394Z,66.87
2022-07-30T08:35:00.376Z,66.06
2022-07-30T08:36:04.176Z,64.94
2022-07-30T08:37:00.363Z,63.81
2022-07-30T08:38:00.321Z,64.29
2022-07-30T08:39:00.306Z,63.00
2022-07-30T08:40:00.288Z,64.29
2022-07-30T08:41:00.268Z,62.36
2022-07-30T08:42:00.529Z,60.91
2022-07-30T08:43:00.237Z,61.23
2022-07-30T08:44:00.219Z,61.23
2022-07-30T08:45:00.221Z,60.91
2022-07-30T08:46:00.186Z,62.04
2022-07-30T08:47:00.450Z,61.71
2022-07-30T08:48:00.149Z,63.81
2022-07-30T08:49:05.369Z,66.55
2022-07-30T08:50:01.110Z,61.39
2022-07-30T08:51:00.095Z,61.71
2022-07-30T08:52:00.369Z,60.42
2022-07-30T08:53:00.068Z,62.20
2022-07-30T08:54:00.089Z,64.78
2022-07-30T08:55:00.022Z,63.16
2022-07-30T08:56:00.006Z,63.49
2022-07-30T08:57:00.014Z,65.10
2022-07-30T08:57:59.966Z,65.26
2022-07-30T08:58:59.949Z,59.78
2022-07-30T09:00:01.710Z,59.30
2022-07-30T09:00:59.918Z,65.74
2022-07-30T09:02:00.139Z,61.23
2022-07-30T09:02:59.880Z,63.00
2022-07-30T09:04:00.613Z,64.78
2022-07-30T09:04:59.844Z,61.71
2022-07-30T09:05:59.827Z,62.68
2022-07-30T09:07:00.029Z,61.07
2022-07-30T09:07:59.790Z,61.39
2022-07-30T09:08:59.771Z,64.94
2022-07-30T09:09:59.753Z,63.33
2022-07-30T09:10:59.740Z,63.33
2022-07-30T09:11:59.749Z,59.46
2022-07-30T09:12:59.700Z,62.68
2022-07-30T09:13:59.680Z,64.45
2022-07-30T09:14:59.666Z,59.94
2022-07-30T09:15:59.643Z,61.39
2022-07-30T09:17:00.715Z,62.20
2022-07-30T09:18:00.451Z,58.81
2022-07-30T09:18:59.596Z,59.62
2022-07-30T09:19:59.584Z,59.94
2022-07-30T09:20:59.563Z,60.75
2022-07-30T09:21:59.566Z,62.04
2022-07-30T09:22:59.521Z,61.71
2022-07-30T09:23:59.502Z,61.55
2022-07-30T09:24:59.483Z,63.49
2022-07-30T09:25:59.468Z,63.16
2022-07-30T09:27:00.380Z,64.61
2022-07-30T09:27:59.433Z,63.97
2022-07-30T09:28:59.946Z,62.68
2022-07-30T09:29:59.411Z,66.23
2022-07-30T09:30:59.380Z,62.52
2022-07-30T09:31:59.725Z,61.71
2022-07-30T09:32:59.344Z,64.78
2022-07-30T09:33:59.328Z,66.87
2022-07-30T09:34:59.310Z,66.23
2022-07-30T09:35:59.297Z,61.39
2022-07-30T09:36:59.303Z,64.61
2022-07-30T09:38:02.969Z,65.10
2022-07-30T09:39:01.239Z,60.91
2022-07-30T09:39:59.908Z,65.26
2022-07-30T09:41:04.878Z,65.26
2022-07-30T09:42:00.492Z,64.13
2022-07-30T09:42:59.201Z,65.58
2022-07-30T09:43:59.155Z,65.26
2022-07-30T09:44:59.138Z,63.97
2022-07-30T09:45:59.120Z,62.20
2022-07-30T09:46:59.133Z,65.90
2022-07-30T09:47:59.085Z,64.61
2022-07-30T09:48:59.087Z,63.16
2022-07-30T09:50:02.806Z,65.26
2022-07-30T09:51:00.034Z,61.39
2022-07-30T09:51:59.018Z,60.59
2022-07-30T09:52:59.030Z,64.61
2022-07-30T09:53:58.979Z,61.87
2022-07-30T09:54:59.943Z,64.45
2022-07-30T09:55:58.947Z,65.74
2022-07-30T09:56:58.932Z,64.94
2022-07-30T09:57:58.993Z,67.35
2022-07-30T09:58:58.892Z,64.45
2022-07-30T09:59:59.987Z,64.94
2022-07-30T10:01:00.432Z,66.06
2022-07-30T10:02:00.950Z,66.55
2022-07-30T10:02:58.847Z,65.26
2022-07-30T10:03:58.803Z,61.71
2022-07-30T10:04:58.789Z,63.65
2022-07-30T10:05:58.772Z,65.26
2022-07-30T10:06:58.752Z,63.49
2022-07-30T10:07:58.760Z,60.75
2022-07-30T10:08:58.715Z,60.75
2022-07-30T10:09:58.695Z,62.04
2022-07-30T10:10:58.675Z,62.68
2022-07-30T10:11:59.808Z,66.06
2022-07-30T10:12:58.671Z,67.03
2022-07-30T10:13:58.624Z,60.75
2022-07-30T10:14:58.608Z,61.55
2022-07-30T10:15:58.597Z,62.20
2022-07-30T10:16:58.571Z,59.14
2022-07-30T10:17:58.587Z,60.75
2022-07-30T10:18:58.538Z,62.68
2022-07-30T10:19:58.528Z,63.00
2022-07-30T10:20:58.506Z,65.26
2022-07-30T10:21:58.561Z,63.81
2022-07-30T10:22:58.493Z,63.97
2022-07-30T10:23:58.451Z,63.00
2022-07-30T10:24:58.433Z,60.26
2022-07-30T10:25:58.419Z,65.58
2022-07-30T10:26:58.475Z,65.26
2022-07-30T10:27:58.405Z,64.29
2022-07-30T10:28:58.360Z,65.10
2022-07-30T10:29:58.343Z,63.65
2022-07-30T10:30:58.327Z,61.71
2022-07-30T10:31:58.312Z,63.00
2022-07-30T10:32:58.324Z,66.39
2022-07-30T10:33:58.276Z,64.13
2022-07-30T10:34:58.257Z,63.81
2022-07-30T10:35:58.237Z,62.84
2022-07-30T10:36:58.218Z,64.61
2022-07-30T10:37:59.055Z,63.65
2022-07-30T10:38:58.182Z,62.52
2022-07-30T10:39:58.161Z,64.78
2022-07-30T10:40:58.148Z,64.29
2022-07-30T10:41:58.129Z,62.68
2022-07-30T10:42:58.140Z,61.23
2022-07-30T10:43:58.095Z,67.51
2022-07-30T10:44:58.076Z,68.32
2022-07-30T10:45:58.062Z,63.00
2022-07-30T10:46:59.418Z,63.97
2022-07-30T10:47:59.057Z,63.81
2022-07-30T10:48:58.077Z,67.35
2022-07-30T10:49:58.994Z,63.97
2022-07-30T10:50:57.976Z,67.03
2022-07-30T10:51:57.957Z,68.32
2022-07-30T10:52:57.967Z,63.49
2022-07-30T10:53:57.923Z,66.71
2022-07-30T10:54:57.905Z,65.90
2022-07-30T10:55:57.890Z,63.97
2022-07-30T10:56:57.870Z,64.94
2022-07-30T10:57:57.882Z,65.10
2022-07-30T10:58:57.832Z,64.29
2022-07-30T10:59:57.813Z,64.78
2022-07-30T11:00:57.795Z,63.97
2022-07-30T11:01:57.781Z,63.49
2022-07-30T11:02:57.793Z,64.13
2022-07-30T11:03:57.741Z,64.13
2022-07-30T11:04:57.722Z,62.84
2022-07-30T11:05:57.740Z,67.03
2022-07-30T11:06:57.687Z,61.07
2022-07-30T11:07:57.701Z,64.29
2022-07-30T11:08:58.131Z,63.00
2022-07-30T11:10:08.749Z,63.33
2022-07-30T11:10:58.615Z,61.71
2022-07-30T11:12:01.821Z,60.59
2022-07-30T11:12:58.618Z,63.16
2022-07-30T11:13:57.591Z,63.81
2022-07-30T11:14:57.554Z,63.16
2022-07-30T11:15:57.532Z,63.16
2022-07-30T11:16:57.515Z,65.10
2022-07-30T11:17:58.083Z,65.10
2022-07-30T11:19:27.220Z,67.35
2022-07-30T11:20:01.813Z,63.49
2022-07-30T11:20:57.447Z,64.78
2022-07-30T11:21:57.427Z,65.26
2022-07-30T11:22:57.435Z,63.33
2022-07-30T11:23:57.392Z,64.61
2022-07-30T11:24:57.369Z,65.10
2022-07-30T11:25:57.356Z,60.75
2022-07-30T11:26:57.334Z,62.04
2022-07-30T11:27:57.346Z,64.45
2022-07-30T11:28:57.314Z,63.33
2022-07-30T11:29:57.307Z,62.84
2022-07-30T11:30:57.267Z,65.42
2022-07-30T11:31:59.507Z,65.74
2022-07-30T11:32:57.260Z,65.26
2022-07-30T11:33:57.712Z,62.68
2022-07-30T11:34:57.196Z,65.42
2022-07-30T11:35:57.178Z,68.48
2022-07-30T11:36:57.161Z,68.32
2022-07-30T11:37:57.171Z,66.55
2022-07-30T11:39:00.088Z,66.55
2022-07-30T11:39:59.100Z,64.29
2022-07-30T11:40:57.084Z,65.26
2022-07-30T11:41:57.067Z,68.16
2022-07-30T11:42:57.072Z,67.68
2022-07-30T11:43:57.031Z,66.06
2022-07-30T11:45:00.951Z,65.90
2022-07-30T11:45:57.994Z,64.78
2022-07-30T11:46:56.977Z,65.58
2022-07-30T11:48:00.092Z,67.84
2022-07-30T11:48:57.115Z,65.42
2022-07-30T11:49:56.919Z,61.55
2022-07-30T11:51:00.743Z,64.94
2022-07-30T11:51:57.879Z,62.52
2022-07-30T11:52:56.888Z,64.61
2022-07-30T11:53:56.845Z,62.52
2022-07-30T11:54:56.827Z,63.81
2022-07-30T11:55:56.806Z,63.33
2022-07-30T11:57:00.731Z,65.90
2022-07-30T11:57:57.798Z,66.71
2022-07-30T11:58:56.752Z,67.35
2022-07-30T11:59:56.732Z,66.23
2022-07-30T12:00:56.723Z,64.78
2022-07-30T12:01:56.693Z,65.26
2022-07-30T12:02:59.843Z,65.74
2022-07-30T12:03:56.656Z,66.39
2022-07-30T12:04:56.636Z,65.26
2022-07-30T12:05:56.618Z,67.68
2022-07-30T12:06:56.601Z,65.10
2022-07-30T12:07:56.606Z,66.06
2022-07-30T12:08:58.802Z,65.90
2022-07-30T12:09:56.546Z,65.74
2022-07-30T12:10:56.528Z,65.74
2022-07-30T12:11:56.508Z,65.58
2022-07-30T12:12:56.515Z,66.55
2022-07-30T12:13:56.470Z,66.55
2022-07-30T12:15:01.571Z,63.65
2022-07-30T12:15:58.434Z,64.29
2022-07-30T12:16:56.417Z,60.75
2022-07-30T12:18:17.575Z,60.91
2022-07-30T12:18:58.385Z,61.23
2022-07-30T12:19:56.362Z,59.46
2022-07-30T12:20:57.624Z,61.55
2022-07-30T12:21:56.325Z,59.78
2022-07-30T12:22:56.343Z,60.59
2022-07-30T12:23:56.291Z,61.23
2022-07-30T12:24:56.274Z,59.14
2022-07-30T12:25:56.257Z,61.07
2022-07-30T12:26:56.234Z,56.40
2022-07-30T12:27:56.243Z,60.75
2022-07-30T12:28:56.203Z,59.14
2022-07-30T12:29:56.180Z,59.30
2022-07-30T12:30:56.165Z,59.46
2022-07-30T12:31:56.146Z,58.49
2022-07-30T12:32:56.156Z,57.20
2022-07-30T12:33:56.115Z,59.30
2022-07-30T12:34:56.091Z,58.01
2022-07-30T12:35:56.076Z,56.88
2022-07-30T12:36:56.055Z,56.88
2022-07-30T12:37:56.060Z,59.14
2022-07-30T12:38:56.012Z,58.17
2022-07-30T12:39:55.996Z,58.65
2022-07-30T12:40:55.979Z,59.62
2022-07-30T12:41:55.999Z,58.33
2022-07-30T12:42:55.946Z,58.81
2022-07-30T12:43:55.952Z,61.23
2022-07-30T12:44:55.905Z,61.87
2022-07-30T12:45:55.914Z,60.91
2022-07-30T12:46:55.870Z,61.07
2022-07-30T12:47:55.852Z,63.97
2022-07-30T12:48:55.942Z,64.29
2022-07-30T12:49:55.882Z,61.87
2022-07-30T12:50:55.825Z,63.33
2022-07-30T12:51:59.747Z,61.71